Terminal Aerodrome Forecast
Issued by NWS State College, PA

Home | Current Version | Previous Version | Text Only | Print | Product List | Glossary On
Versions: 1 2 3 4 5 6 7 8 9 10 11 12 13 14 15 16 17 18 19 20 21 22 23 24 25 26 27 28 29 30 31 32 33 34 35 36 37 38 39 40 41 42 43 44 45 46 47 48 49 50
000
FTUS41 KCTP 130538
TAFMDT
TAF
KMDT 130538Z 1306/1406 16005KT P6SM FEW090 BKN250
     FM131000 13003KT 4SM BR OVC100
     FM131400 20005KT P6SM VCSH BKN150
     FM132000 25010KT P6SM BKN250=

USA.gov is the U.S. government's official web portal to all federal, state and local government web resources and services.